Time;durP1;ratioP1;P1;durP2;ratioP2;P2;SDS_P1;SDS_P2;PMS_P1;PMS_P2;Temp;Humidity;BMP_temperature;BMP_pressure;BME280_temperature;BME280_humidity;BME280_pressure;Samples;Min_cycle;Max_cycle;Signal;HPM_P1;HPM_P2
2021/09/24 00:02:26;;;;;;;13.52;7.00;;;;;;;;;;6156255;23;20179;-90
2021/09/24 00:05:32;;;;;;;12.95;7.75;;;;;;;;;;6156993;23;20172;-89
2021/09/24 00:08:37;;;;;;;13.85;7.63;;;;;;;;;;6157345;23;20180;-89
2021/09/24 00:11:43;;;;;;;20.50;7.70;;;;;;;;;;6158208;23;20168;-90
2021/09/24 00:14:49;;;;;;;15.50;8.18;;;;;;;;;;6157510;23;20257;-90
2021/09/24 00:17:54;;;;;;;14.32;8.07;;;;;;;;;;6157775;23;20169;-90
2021/09/24 00:21:00;;;;;;;16.77;8.30;;;;;;;;;;6155298;23;20177;-91
2021/09/24 00:24:05;;;;;;;15.75;8.02;;;;;;;;;;6154780;23;20248;-89
2021/09/24 00:27:11;;;;;;;12.48;6.50;;;;;;;;;;6155562;23;20180;-90
2021/09/24 00:30:18;;;;;;;17.33;7.95;;;;;;;;;;6156905;23;20237;-91
2021/09/24 00:33:27;;;;;;;14.50;7.50;;;;;;;;;;6156567;23;20164;-91
2021/09/24 00:36:32;;;;;;;19.65;7.53;;;;;;;;;;6155261;23;20168;-90
2021/09/24 00:39:37;;;;;;;13.75;7.95;;;;;;;;;;6156410;23;20175;-90
2021/09/24 00:42:44;;;;;;;15.43;7.60;;;;;;;;;;6157124;23;20177;-91
2021/09/24 00:45:50;;;;;;;14.88;7.63;;;;;;;;;;6157232;23;20196;-91
2021/09/24 00:48:55;;;;;;;22.80;8.13;;;;;;;;;;6157720;23;20257;-90
2021/09/24 00:52:00;;;;;;;16.88;7.38;;;;;;;;;;6158212;23;20246;-91
2021/09/24 00:55:07;;;;;;;15.27;7.28;;;;;;;;;;6157668;23;20172;-89
2021/09/24 00:58:14;;;;;;;13.15;7.00;;;;;;;;;;6155916;23;20220;-91
2021/09/24 01:01:20;;;;;;;12.25;7.22;;;;;;;;;;6157680;23;20599;-90
2021/09/24 01:04:25;;;;;;;16.67;7.25;;;;;;;;;;6156563;23;20241;-90
2021/09/24 01:07:30;;;;;;;18.10;8.70;;;;;;;;;;6155862;23;20189;-90
2021/09/24 01:10:36;;;;;;;14.55;7.53;;;;;;;;;;6157542;23;20173;-92
2021/09/24 01:13:43;;;;;;;14.23;7.45;;;;;;;;;;6157149;23;20615;-91
2021/09/24 01:16:48;;;;;;;16.75;7.35;;;;;;;;;;6159504;23;20172;-90
2021/09/24 01:19:54;;;;;;;12.40;6.82;;;;;;;;;;6157551;23;20177;-91
2021/09/24 01:23:01;;;;;;;13.05;7.07;;;;;;;;;;6156239;23;20168;-89
2021/09/24 01:26:07;;;;;;;20.15;6.95;;;;;;;;;;6156253;23;20192;-90
2021/09/24 01:29:12;;;;;;;11.55;6.47;;;;;;;;;;6156034;23;20224;-91
2021/09/24 01:32:18;;;;;;;12.90;7.18;;;;;;;;;;6156085;23;20189;-90
2021/09/24 01:35:23;;;;;;;12.35;7.25;;;;;;;;;;6156023;23;20160;-90
2021/09/24 01:38:30;;;;;;;12.48;7.20;;;;;;;;;;6155790;23;20172;-88
2021/09/24 01:41:38;;;;;;;14.05;7.32;;;;;;;;;;6156598;23;20209;-90
2021/09/24 01:44:43;;;;;;;12.73;7.13;;;;;;;;;;6156469;23;20230;-90
2021/09/24 01:47:49;;;;;;;15.25;7.50;;;;;;;;;;6155967;23;20192;-92
2021/09/24 01:50:54;;;;;;;15.32;7.57;;;;;;;;;;6190007;23;20215;-92
2021/09/24 01:54:01;;;;;;;16.77;7.78;;;;;;;;;;6201847;23;20172;-89
2021/09/24 01:57:06;;;;;;;18.65;8.60;;;;;;;;;;6203412;23;20151;-89
2021/09/24 02:00:12;;;;;;;15.50;7.85;;;;;;;;;;6203751;23;20172;-91
2021/09/24 02:03:17;;;;;;;17.05;7.68;;;;;;;;;;6202930;23;20164;-92
2021/09/24 02:06:23;;;;;;;18.20;7.20;;;;;;;;;;6201812;22;20643;-91
2021/09/24 02:09:29;;;;;;;15.10;7.60;;;;;;;;;;6200909;23;20172;-92
2021/09/24 02:12:35;;;;;;;13.02;7.03;;;;;;;;;;6202170;23;20627;-90
2021/09/24 02:15:40;;;;;;;15.63;7.18;;;;;;;;;;6201894;23;20215;-89
2021/09/24 02:18:46;;;;;;;14.02;7.60;;;;;;;;;;6200593;22;20626;-91
2021/09/24 02:25:13;;;;;;;14.02;7.45;;;;;;;;;;6201256;22;20170;-89
2021/09/24 02:28:18;;;;;;;12.68;6.88;;;;;;;;;;6202276;23;20239;-91
2021/09/24 02:31:22;;;;;;;15.30;7.57;;;;;;;;;;6201971;23;20235;-90
2021/09/24 02:34:27;;;;;;;15.40;8.38;;;;;;;;;;6201993;22;20203;-92
2021/09/24 02:37:32;;;;;;;14.07;7.40;;;;;;;;;;6202409;23;20607;-90
2021/09/24 02:40:39;;;;;;;16.98;8.00;;;;;;;;;;6202065;22;20216;-91
2021/09/24 02:43:45;;;;;;;15.90;8.10;;;;;;;;;;6201752;22;20167;-92
2021/09/24 02:46:50;;;;;;;15.95;8.20;;;;;;;;;;6199982;23;20212;-90
2021/09/24 02:49:55;;;;;;;14.93;7.95;;;;;;;;;;6201341;23;20191;-92
2021/09/24 02:53:00;;;;;;;19.08;7.70;;;;;;;;;;6200893;23;20219;-91
2021/09/24 02:56:07;;;;;;;15.65;8.48;;;;;;;;;;6201003;23;20175;-91
2021/09/24 02:59:12;;;;;;;15.02;7.68;;;;;;;;;;6200388;22;20243;-91
2021/09/24 03:02:17;;;;;;;15.52;7.22;;;;;;;;;;6200477;23;20171;-89
2021/09/24 03:05:23;;;;;;;15.90;7.80;;;;;;;;;;6201391;23;20183;-89
2021/09/24 03:08:28;;;;;;;13.77;7.38;;;;;;;;;;6200784;23;20199;-92
2021/09/24 03:11:36;;;;;;;16.38;7.80;;;;;;;;;;6201245;22;20622;-91
2021/09/24 03:14:41;;;;;;;13.45;7.18;;;;;;;;;;6200388;22;20191;-90
2021/09/24 03:17:47;;;;;;;17.58;8.02;;;;;;;;;;6201290;23;20191;-90
2021/09/24 03:20:52;;;;;;;16.00;8.20;;;;;;;;;;6200905;23;20171;-90
2021/09/24 03:23:57;;;;;;;12.00;7.13;;;;;;;;;;6201263;22;20207;-90
2021/09/24 03:27:04;;;;;;;12.38;7.05;;;;;;;;;;6200150;22;20642;-89
2021/09/24 03:30:10;;;;;;;13.55;6.78;;;;;;;;;;6200811;22;20167;-92
2021/09/24 03:33:20;;;;;;;11.93;6.90;;;;;;;;;;6199804;22;20204;-89
2021/09/24 03:36:25;;;;;;;11.93;6.93;;;;;;;;;;6200767;23;20168;-91
2021/09/24 03:39:30;;;;;;;13.75;7.63;;;;;;;;;;6202025;22;20171;-91
2021/09/24 03:42:37;;;;;;;16.45;6.93;;;;;;;;;;6200284;22;20219;-91
2021/09/24 03:45:43;;;;;;;16.55;7.68;;;;;;;;;;6200531;23;20228;-91
2021/09/24 03:48:49;;;;;;;13.45;7.10;;;;;;;;;;6200165;23;20184;-91
2021/09/24 03:51:54;;;;;;;14.02;7.53;;;;;;;;;;6200021;23;20152;-92
2021/09/24 03:54:59;;;;;;;12.82;7.22;;;;;;;;;;6201454;23;20172;-90
2021/09/24 03:58:06;;;;;;;13.50;7.38;;;;;;;;;;6201192;22;20176;-89
2021/09/24 04:01:30;;;;;;;16.77;7.63;;;;;;;;;;6200670;22;20251;-93
2021/09/24 04:04:35;;;;;;;12.50;6.93;;;;;;;;;;6199434;23;20167;-91
2021/09/24 04:07:40;;;;;;;15.68;8.52;;;;;;;;;;6199199;23;20179;-91
2021/09/24 04:10:45;;;;;;;12.65;7.35;;;;;;;;;;6198599;23;20167;-91
2021/09/24 04:13:52;;;;;;;13.48;7.88;;;;;;;;;;6202208;22;20148;-89
2021/09/24 04:16:57;;;;;;;13.00;7.38;;;;;;;;;;6201428;23;20215;-89
2021/09/24 04:20:03;;;;;;;13.70;7.57;;;;;;;;;;6201445;23;20176;-92
2021/09/24 04:23:08;;;;;;;12.10;7.00;;;;;;;;;;6200248;23;20214;-91
2021/09/24 04:26:21;;;;;;;13.43;7.30;;;;;;;;;;6201911;23;20171;-90
2021/09/24 04:29:28;;;;;;;13.63;7.47;;;;;;;;;;6200429;23;20176;-90
2021/09/24 04:32:33;;;;;;;12.35;7.15;;;;;;;;;;6204101;23;20227;-90
2021/09/24 04:35:38;;;;;;;18.20;7.70;;;;;;;;;;6204306;23;20175;-91
2021/09/24 04:38:43;;;;;;;16.80;7.82;;;;;;;;;;6203767;22;20172;-91
2021/09/24 04:42:18;;;;;;;17.17;7.97;;;;;;;;;;6204303;23;20156;-89
2021/09/24 04:45:26;;;;;;;15.88;7.53;;;;;;;;;;6204775;23;20187;-92
2021/09/24 04:48:32;;;;;;;12.55;7.18;;;;;;;;;;6203911;22;20324;-90
2021/09/24 04:51:37;;;;;;;13.02;7.60;;;;;;;;;;6204802;22;20167;-92
2021/09/24 04:54:43;;;;;;;16.10;7.65;;;;;;;;;;6202305;22;20184;-90
2021/09/24 04:57:48;;;;;;;14.82;7.70;;;;;;;;;;6203245;22;20469;-91
2021/09/24 05:00:54;;;;;;;19.65;7.65;;;;;;;;;;6203941;22;20171;-92
2021/09/24 05:04:00;;;;;;;13.70;7.90;;;;;;;;;;6202084;22;20172;-89
2021/09/24 05:07:05;;;;;;;18.52;7.82;;;;;;;;;;6203231;22;20197;-89
2021/09/24 05:10:11;;;;;;;15.68;7.75;;;;;;;;;;6202116;23;20168;-92
2021/09/24 05:13:17;;;;;;;21.02;10.02;;;;;;;;;;6202879;22;20195;-88
2021/09/24 05:16:24;;;;;;;18.17;8.63;;;;;;;;;;6203245;22;20167;-91
2021/09/24 05:19:29;;;;;;;12.68;7.75;;;;;;;;;;6202551;22;20200;-90
2021/09/24 05:22:35;;;;;;;12.82;7.25;;;;;;;;;;6202871;22;20216;-91
2021/09/24 05:25:40;;;;;;;17.23;7.88;;;;;;;;;;6206473;22;20164;-89
2021/09/24 05:28:45;;;;;;;16.25;8.10;;;;;;;;;;6208500;22;20261;-91
2021/09/24 05:31:55;;;;;;;16.60;7.93;;;;;;;;;;6206315;22;20179;-91
2021/09/24 05:35:01;;;;;;;15.68;7.43;;;;;;;;;;6207177;22;20164;-92
2021/09/24 05:38:06;;;;;;;18.73;7.40;;;;;;;;;;6205545;22;20176;-91
2021/09/24 05:41:11;;;;;;;13.57;7.57;;;;;;;;;;6203742;23;20172;-91
2021/09/24 05:44:17;;;;;;;17.08;8.68;;;;;;;;;;6203373;23;20163;-90
2021/09/24 05:47:25;;;;;;;15.13;8.48;;;;;;;;;;6204188;22;20195;-89
2021/09/24 05:50:31;;;;;;;13.88;8.43;;;;;;;;;;6205515;23;20211;-89
2021/09/24 05:53:38;;;;;;;18.38;8.07;;;;;;;;;;6204990;22;20168;-92
2021/09/24 05:56:43;;;;;;;19.60;8.13;;;;;;;;;;6202725;22;20172;-89
2021/09/24 05:59:49;;;;;;;17.05;8.68;;;;;;;;;;6204444;23;20166;-91
2021/09/24 06:06:16;;;;;;;17.63;8.60;;;;;;;;;;6204563;22;20196;-89
2021/09/24 06:09:21;;;;;;;14.00;8.30;;;;;;;;;;6202132;23;20200;-90
2021/09/24 06:12:26;;;;;;;16.60;8.50;;;;;;;;;;6201585;23;20167;-90
2021/09/24 06:15:32;;;;;;;12.80;7.45;;;;;;;;;;6202182;23;20274;-91
2021/09/24 06:18:40;;;;;;;17.40;7.47;;;;;;;;;;6202229;22;20167;-90
2021/09/24 06:21:46;;;;;;;14.55;7.68;;;;;;;;;;6203717;23;20489;-90
2021/09/24 06:24:52;;;;;;;15.73;7.82;;;;;;;;;;6202594;23;20208;-91
2021/09/24 06:27:57;;;;;;;13.98;7.95;;;;;;;;;;6202292;23;20196;-91
2021/09/24 06:31:02;;;;;;;12.40;7.22;;;;;;;;;;6203671;23;20163;-90
2021/09/24 06:34:09;;;;;;;15.82;7.55;;;;;;;;;;6201583;23;20160;-89
2021/09/24 06:37:15;;;;;;;13.82;7.65;;;;;;;;;;6203825;23;20155;-93
2021/09/24 06:40:20;;;;;;;15.00;7.63;;;;;;;;;;6202592;22;20187;-92
2021/09/24 06:43:26;;;;;;;15.15;7.85;;;;;;;;;;6204102;23;20670;-89
2021/09/24 06:46:32;;;;;;;13.73;7.57;;;;;;;;;;6202593;22;20245;-89
2021/09/24 06:49:38;;;;;;;13.38;7.85;;;;;;;;;;6205024;22;20200;-91
2021/09/24 06:52:45;;;;;;;16.90;9.00;;;;;;;;;;6201583;22;20268;-91
2021/09/24 06:55:56;;;;;;;17.13;8.02;;;;;;;;;;6202605;22;20263;-91
2021/09/24 06:59:02;;;;;;;14.60;8.63;;;;;;;;;;6201931;22;20155;-91
2021/09/24 07:02:08;;;;;;;12.80;7.90;;;;;;;;;;6201814;23;20239;-91
2021/09/24 07:05:16;;;;;;;19.52;8.07;;;;;;;;;;6202904;23;20222;-91
2021/09/24 07:08:22;;;;;;;17.58;8.02;;;;;;;;;;6204479;23;20245;-90
2021/09/24 07:11:28;;;;;;;16.17;8.07;;;;;;;;;;6202834;22;20251;-91
2021/09/24 07:14:34;;;;;;;19.00;8.30;;;;;;;;;;6202855;22;20187;-91
2021/09/24 07:17:44;;;;;;;12.60;7.25;;;;;;;;;;6203576;23;20168;-91
2021/09/24 07:20:54;;;;;;;13.07;7.18;;;;;;;;;;6186291;23;20217;-89
2021/09/24 07:23:59;;;;;;;13.00;7.35;;;;;;;;;;6203671;23;20239;-90
2021/09/24 07:27:05;;;;;;;14.35;7.88;;;;;;;;;;6203063;23;20239;-90
2021/09/24 07:30:11;;;;;;;14.27;7.57;;;;;;;;;;6203151;22;20175;-88
2021/09/24 07:33:17;;;;;;;14.82;8.60;;;;;;;;;;6202558;23;20171;-91
2021/09/24 07:36:25;;;;;;;20.83;8.30;;;;;;;;;;6202526;23;20171;-90
2021/09/24 07:39:31;;;;;;;17.70;7.70;;;;;;;;;;6202307;23;20196;-90
2021/09/24 07:42:38;;;;;;;13.02;7.55;;;;;;;;;;6202169;23;20199;-90
2021/09/24 07:45:43;;;;;;;17.25;8.27;;;;;;;;;;6202965;23;20215;-90
2021/09/24 07:48:50;;;;;;;13.27;7.93;;;;;;;;;;6202623;22;20244;-91
2021/09/24 07:51:57;;;;;;;15.82;7.68;;;;;;;;;;6202825;23;20172;-92
2021/09/24 07:55:06;;;;;;;15.27;8.15;;;;;;;;;;6203485;22;20172;-89
2021/09/24 07:58:12;;;;;;;14.98;8.07;;;;;;;;;;6201781;23;20666;-89
2021/09/24 08:01:17;;;;;;;16.85;8.30;;;;;;;;;;6199568;23;20167;-90
2021/09/24 08:04:24;;;;;;;16.13;7.90;;;;;;;;;;6201064;22;20188;-90
2021/09/24 08:07:32;;;;;;;16.77;8.02;;;;;;;;;;6204798;23;20228;-89
2021/09/24 08:10:37;;;;;;;15.40;8.30;;;;;;;;;;6200953;23;20179;-89
2021/09/24 08:13:43;;;;;;;13.00;7.47;;;;;;;;;;6201802;23;20171;-89
2021/09/24 08:16:47;;;;;;;14.40;8.30;;;;;;;;;;6201485;22;20176;-90
2021/09/24 08:19:52;;;;;;;14.15;7.25;;;;;;;;;;6201165;23;20239;-89
2021/09/24 08:22:59;;;;;;;14.45;7.47;;;;;;;;;;6199631;23;20179;-92
2021/09/24 08:26:05;;;;;;;14.13;8.05;;;;;;;;;;6199520;23;20250;-90
2021/09/24 08:29:10;;;;;;;16.42;7.43;;;;;;;;;;6199351;23;20219;-89
2021/09/24 08:32:15;;;;;;;14.32;7.70;;;;;;;;;;6198959;23;20168;-90
2021/09/24 08:35:24;;;;;;;13.80;7.68;;;;;;;;;;6200469;23;20182;-90
2021/09/24 08:38:30;;;;;;;14.63;7.82;;;;;;;;;;6201282;23;20179;-88
2021/09/24 08:41:38;;;;;;;13.80;8.25;;;;;;;;;;6202568;23;20167;-91
2021/09/24 08:44:43;;;;;;;14.40;7.32;;;;;;;;;;6202813;23;20291;-91
2021/09/24 08:47:49;;;;;;;15.70;8.50;;;;;;;;;;6201756;23;20291;-89
2021/09/24 08:50:55;;;;;;;17.38;8.15;;;;;;;;;;6202185;23;20191;-90
2021/09/24 08:54:02;;;;;;;13.20;7.72;;;;;;;;;;6202737;23;20167;-90
2021/09/24 08:57:11;;;;;;;16.50;8.05;;;;;;;;;;6200656;23;20179;-91
2021/09/24 09:00:17;;;;;;;16.88;8.93;;;;;;;;;;6201646;23;20229;-91
2021/09/24 09:03:22;;;;;;;13.63;8.27;;;;;;;;;;6202313;23;20172;-91
2021/09/24 09:06:30;;;;;;;14.43;7.47;;;;;;;;;;6201739;23;20167;-90
2021/09/24 09:09:39;;;;;;;18.95;8.13;;;;;;;;;;6202161;23;20215;-92
2021/09/24 09:12:44;;;;;;;12.52;7.03;;;;;;;;;;6202920;23;20181;-91
2021/09/24 09:15:54;;;;;;;13.65;6.90;;;;;;;;;;6200852;23;20168;-92
2021/09/24 09:19:07;;;;;;;14.30;6.70;;;;;;;;;;6201546;22;20172;-91
2021/09/24 09:22:23;;;;;;;9.55;6.15;;;;;;;;;;6206362;23;20171;-92
2021/09/24 09:25:31;;;;;;;11.43;5.95;;;;;;;;;;6203606;23;20556;-91
2021/09/24 09:28:39;;;;;;;9.40;5.70;;;;;;;;;;6200421;23;20186;-89
2021/09/24 09:31:44;;;;;;;8.85;6.00;;;;;;;;;;6202958;22;20168;-89
2021/09/24 09:34:51;;;;;;;12.40;6.90;;;;;;;;;;6201057;23;20167;-92
2021/09/24 09:37:59;;;;;;;11.35;6.32;;;;;;;;;;6205635;22;20247;-91
2021/09/24 09:41:06;;;;;;;9.00;5.78;;;;;;;;;;6200771;23;20176;-91
2021/09/24 09:44:11;;;;;;;11.07;6.05;;;;;;;;;;6201147;23;20623;-90
2021/09/24 09:47:28;;;;;;;10.20;5.35;;;;;;;;;;6200991;23;20618;-89
2021/09/24 09:50:39;;;;;;;9.40;5.50;;;;;;;;;;6200173;23;20303;-90
2021/09/24 09:53:50;;;;;;;10.32;5.07;;;;;;;;;;6200677;22;20173;-89
2021/09/24 09:57:10;;;;;;;10.07;5.05;;;;;;;;;;6201329;23;20205;-88
2021/09/24 10:00:23;;;;;;;8.60;5.05;;;;;;;;;;6200825;22;20269;-89
2021/09/24 10:03:34;;;;;;;11.43;5.38;;;;;;;;;;6200836;23;20172;-91
2021/09/24 10:06:42;;;;;;;10.60;5.60;;;;;;;;;;6200164;23;20184;-89
2021/09/24 10:09:48;;;;;;;8.00;5.03;;;;;;;;;;6198308;23;20263;-89
2021/09/24 10:12:56;;;;;;;11.43;5.32;;;;;;;;;;6197698;23;20211;-90
2021/09/24 10:16:02;;;;;;;7.57;4.97;;;;;;;;;;6197504;23;20175;-90
2021/09/24 10:19:07;;;;;;;7.20;4.85;;;;;;;;;;6200469;23;20215;-89
2021/09/24 10:22:13;;;;;;;9.35;4.30;;;;;;;;;;6199732;23;20215;-90
2021/09/24 10:25:21;;;;;;;11.13;5.15;;;;;;;;;;6198677;23;20252;-91
2021/09/24 10:28:32;;;;;;;13.10;6.05;;;;;;;;;;6199876;23;20511;-90
2021/09/24 10:31:41;;;;;;;14.65;5.65;;;;;;;;;;6203006;23;20176;-90
2021/09/24 10:34:55;;;;;;;10.10;5.00;;;;;;;;;;6200876;22;20176;-90
2021/09/24 10:38:08;;;;;;;9.15;4.95;;;;;;;;;;6200431;23;20175;-91
2021/09/24 10:41:14;;;;;;;9.40;6.00;;;;;;;;;;6201324;23;20223;-91
2021/09/24 10:44:31;;;;;;;5.90;4.15;;;;;;;;;;6200364;23;20249;-92
2021/09/24 10:47:57;;;;;;;8.63;4.00;;;;;;;;;;6201490;23;20233;-91
2021/09/24 10:54:25;;;;;;;6.80;3.60;;;;;;;;;;6201349;23;20172;-89
2021/09/24 10:57:50;;;;;;;8.15;3.47;;;;;;;;;;6199857;23;20295;-92
2021/09/24 11:00:57;;;;;;;8.38;4.53;;;;;;;;;;6200922;23;20188;-90
2021/09/24 11:07:32;;;;;;;14.60;5.25;;;;;;;;;;6202823;23;20184;-88
2021/09/24 11:10:38;;;;;;;14.40;5.50;;;;;;;;;;6200723;23;20192;-90
2021/09/24 11:13:46;;;;;;;11.25;5.20;;;;;;;;;;6202559;23;20171;-89
2021/09/24 11:16:54;;;;;;;11.90;4.80;;;;;;;;;;6202213;23;20615;-90
2021/09/24 11:19:59;;;;;;;9.90;4.82;;;;;;;;;;6199263;22;20194;-90
2021/09/24 11:23:24;;;;;;;13.73;4.10;;;;;;;;;;6198543;23;20159;-91
2021/09/24 11:26:30;;;;;;;10.40;5.13;;;;;;;;;;6197909;23;20219;-91
2021/09/24 11:29:36;;;;;;;7.70;4.57;;;;;;;;;;6200325;23;20199;-91
2021/09/24 11:32:44;;;;;;;8.07;5.13;;;;;;;;;;6200129;23;20171;-89
2021/09/24 11:35:49;;;;;;;7.55;4.53;;;;;;;;;;6201216;23;20172;-91
2021/09/24 11:39:02;;;;;;;8.88;4.07;;;;;;;;;;6203738;23;20147;-92
2021/09/24 11:42:12;;;;;;;4.75;3.33;;;;;;;;;;6200201;22;20219;-91
2021/09/24 11:45:19;;;;;;;7.15;3.35;;;;;;;;;;6180366;23;20172;-91
2021/09/24 11:48:31;;;;;;;5.07;3.47;;;;;;;;;;6200704;23;20176;-92
2021/09/24 11:51:36;;;;;;;10.00;3.83;;;;;;;;;;6197341;23;20195;-91
2021/09/24 11:54:41;;;;;;;6.90;3.55;;;;;;;;;;6196779;23;20164;-90
2021/09/24 11:57:56;;;;;;;11.95;4.35;;;;;;;;;;6196446;23;20167;-90
2021/09/24 12:01:02;;;;;;;6.68;4.70;;;;;;;;;;6196816;23;20172;-91
2021/09/24 12:04:08;;;;;;;8.52;5.18;;;;;;;;;;6194738;23;20163;-91
2021/09/24 12:07:14;;;;;;;10.70;5.28;;;;;;;;;;6198313;23;20172;-91
2021/09/24 12:10:27;;;;;;;9.80;5.68;;;;;;;;;;6197046;22;20242;-91
2021/09/24 12:13:41;;;;;;;12.75;5.30;;;;;;;;;;6196791;23;20167;-90
2021/09/24 12:16:49;;;;;;;11.13;5.25;;;;;;;;;;6197107;23;20299;-91
2021/09/24 12:19:56;;;;;;;13.23;5.18;;;;;;;;;;6195950;23;20168;-91
2021/09/24 12:23:01;;;;;;;11.65;5.97;;;;;;;;;;6198793;23;20236;-88
2021/09/24 12:26:08;;;;;;;10.70;5.50;;;;;;;;;;6198517;23;20236;-91
2021/09/24 12:29:14;;;;;;;10.65;5.00;;;;;;;;;;6196645;23;20200;-90
2021/09/24 12:32:19;;;;;;;14.95;5.45;;;;;;;;;;6194944;23;20258;-92
2021/09/24 12:35:26;;;;;;;10.00;5.55;;;;;;;;;;6194842;23;20243;-91
2021/09/24 12:38:32;;;;;;;10.48;5.35;;;;;;;;;;6199522;23;20162;-90
2021/09/24 12:41:42;;;;;;;12.05;5.18;;;;;;;;;;6197765;23;20271;-91
2021/09/24 12:44:50;;;;;;;8.18;4.88;;;;;;;;;;6199723;23;20188;-90
2021/09/24 12:47:55;;;;;;;12.18;4.85;;;;;;;;;;6199006;23;20167;-91
2021/09/24 12:51:03;;;;;;;16.52;5.78;;;;;;;;;;6197945;23;20222;-91
2021/09/24 12:54:10;;;;;;;11.32;5.47;;;;;;;;;;6200268;23;20176;-89
2021/09/24 12:57:17;;;;;;;11.57;5.78;;;;;;;;;;6200189;23;20155;-91
2021/09/24 13:00:25;;;;;;;10.32;5.68;;;;;;;;;;6199129;23;20510;-91
2021/09/24 13:03:31;;;;;;;14.82;5.57;;;;;;;;;;6197388;23;20175;-88
2021/09/24 13:06:41;;;;;;;11.90;5.57;;;;;;;;;;6198982;22;20168;-91
2021/09/24 13:09:46;;;;;;;9.45;5.25;;;;;;;;;;6201652;23;20195;-90
2021/09/24 13:12:53;;;;;;;7.78;5.20;;;;;;;;;;6201878;23;20176;-90
2021/09/24 13:15:59;;;;;;;13.50;5.80;;;;;;;;;;6205728;22;20171;-91
2021/09/24 13:19:04;;;;;;;13.65;5.10;;;;;;;;;;6197321;22;20611;-91
2021/09/24 13:22:13;;;;;;;12.88;5.15;;;;;;;;;;6201682;23;20171;-91
2021/09/24 13:25:18;;;;;;;11.50;5.55;;;;;;;;;;6198338;23;20199;-90
2021/09/24 13:28:23;;;;;;;17.00;5.07;;;;;;;;;;6201886;23;20188;-90
2021/09/24 13:31:29;;;;;;;8.23;4.70;;;;;;;;;;6199938;23;20187;-90
2021/09/24 13:34:34;;;;;;;10.93;4.50;;;;;;;;;;6199184;23;20167;-89
2021/09/24 13:37:43;;;;;;;7.20;4.25;;;;;;;;;;6200255;23;20284;-90
2021/09/24 13:40:49;;;;;;;8.68;4.35;;;;;;;;;;6199920;23;20171;-92
2021/09/24 13:43:54;;;;;;;9.63;4.18;;;;;;;;;;6200035;23;20193;-92
2021/09/24 13:47:00;;;;;;;10.73;4.00;;;;;;;;;;6197741;23;20187;-92
2021/09/24 13:50:06;;;;;;;9.13;3.22;;;;;;;;;;6198893;23;20539;-91
2021/09/24 13:53:14;;;;;;;7.50;3.85;;;;;;;;;;6198482;23;20481;-90
2021/09/24 13:56:20;;;;;;;8.50;2.80;;;;;;;;;;6199673;23;20172;-91
2021/09/24 13:59:25;;;;;;;4.43;3.00;;;;;;;;;;6200748;23;20168;-91
2021/09/24 14:02:30;;;;;;;5.13;3.03;;;;;;;;;;6199184;23;20180;-91
2021/09/24 14:05:34;;;;;;;6.38;2.63;;;;;;;;;;6199429;23;20171;-92
2021/09/24 14:08:41;;;;;;;8.05;2.97;;;;;;;;;;6200318;23;20175;-90
2021/09/24 14:11:46;;;;;;;4.85;3.20;;;;;;;;;;6202425;22;20171;-92
2021/09/24 14:14:51;;;;;;;4.57;2.92;;;;;;;;;;6199354;23;20167;-90
2021/09/24 14:17:57;;;;;;;7.53;3.80;;;;;;;;;;6197090;23;20215;-93
2021/09/24 14:21:02;;;;;;;5.95;3.67;;;;;;;;;;6201292;23;20271;-91
2021/09/24 14:24:16;;;;;;;7.90;3.25;;;;;;;;;;6199447;23;20167;-92
2021/09/24 14:27:21;;;;;;;11.50;3.22;;;;;;;;;;6200913;22;20264;-92
2021/09/24 14:30:27;;;;;;;6.15;3.45;;;;;;;;;;6198112;23;20195;-89
2021/09/24 14:33:33;;;;;;;7.40;3.47;;;;;;;;;;6198877;23;20195;-90
2021/09/24 14:36:41;;;;;;;6.70;3.17;;;;;;;;;;6202566;22;20168;-92
2021/09/24 14:39:48;;;;;;;6.13;2.72;;;;;;;;;;6201011;23;20235;-91
2021/09/24 14:42:58;;;;;;;6.72;3.13;;;;;;;;;;6200891;23;20284;-91
2021/09/24 14:46:03;;;;;;;7.55;2.80;;;;;;;;;;6197634;23;20171;-92
2021/09/24 14:49:10;;;;;;;5.95;2.65;;;;;;;;;;6197246;23;20175;-92
2021/09/24 14:52:15;;;;;;;6.45;3.10;;;;;;;;;;6198800;23;20232;-94
2021/09/24 14:55:21;;;;;;;7.97;3.55;;;;;;;;;;6199777;23;20396;-89
2021/09/24 14:58:27;;;;;;;5.70;2.67;;;;;;;;;;6197655;23;20291;-88
2021/09/24 15:01:32;;;;;;;6.55;2.72;;;;;;;;;;6197185;23;20167;-90
2021/09/24 15:04:37;;;;;;;5.80;3.00;;;;;;;;;;6199413;23;20172;-89
2021/09/24 15:11:04;;;;;;;4.80;2.67;;;;;;;;;;6197902;22;20207;-91
2021/09/24 15:14:10;;;;;;;7.60;3.33;;;;;;;;;;6201553;22;20668;-91
2021/09/24 15:17:15;;;;;;;8.30;3.15;;;;;;;;;;6197917;23;20160;-89
2021/09/24 15:20:21;;;;;;;5.63;3.22;;;;;;;;;;6200049;23;20346;-91
2021/09/24 15:23:28;;;;;;;5.75;3.08;;;;;;;;;;6199793;22;20163;-91
2021/09/24 15:26:44;;;;;;;4.85;3.00;;;;;;;;;;6200687;22;20627;-91
2021/09/24 15:29:49;;;;;;;5.47;3.20;;;;;;;;;;6199948;23;20253;-90
2021/09/24 15:33:00;;;;;;;6.43;3.00;;;;;;;;;;6198249;23;20164;-92
2021/09/24 15:36:05;;;;;;;5.55;2.97;;;;;;;;;;6197502;23;20188;-90
2021/09/24 15:39:11;;;;;;;5.63;2.88;;;;;;;;;;6200757;23;20179;-92
2021/09/24 15:42:17;;;;;;;5.13;3.20;;;;;;;;;;6199013;22;20227;-94
2021/09/24 15:45:22;;;;;;;5.38;3.10;;;;;;;;;;6201214;22;20164;-92
2021/09/24 15:48:27;;;;;;;4.95;2.75;;;;;;;;;;6198883;22;20156;-93
2021/09/24 15:51:32;;;;;;;7.72;3.35;;;;;;;;;;6200500;23;20299;-92
2021/09/24 15:54:42;;;;;;;6.53;3.10;;;;;;;;;;6200030;23;20175;-91
2021/09/24 15:57:52;;;;;;;5.15;2.95;;;;;;;;;;6199844;23;20218;-92
2021/09/24 16:00:57;;;;;;;6.07;3.20;;;;;;;;;;6200827;23;20238;-93
2021/09/24 16:04:03;;;;;;;7.45;3.53;;;;;;;;;;6200245;22;20200;-90
2021/09/24 16:07:08;;;;;;;6.90;3.65;;;;;;;;;;6199814;23;20200;-92
2021/09/24 16:10:19;;;;;;;6.60;3.70;;;;;;;;;;6198468;23;20195;-91
2021/09/24 16:13:26;;;;;;;5.43;3.20;;;;;;;;;;6199996;22;20156;-91
2021/09/24 16:16:31;;;;;;;6.65;3.25;;;;;;;;;;6198076;23;20163;-91
2021/09/24 16:19:37;;;;;;;6.13;3.85;;;;;;;;;;6202362;23;20156;-90
2021/09/24 16:22:42;;;;;;;6.72;3.80;;;;;;;;;;6200351;23;20232;-89
2021/09/24 16:25:48;;;;;;;12.95;5.40;;;;;;;;;;6200917;22;20188;-91
2021/09/24 16:28:59;;;;;;;10.20;4.30;;;;;;;;;;6201142;23;20148;-92
2021/09/24 16:32:05;;;;;;;9.02;4.00;;;;;;;;;;6203064;23;20611;-90
2021/09/24 16:35:12;;;;;;;10.68;4.68;;;;;;;;;;6201515;22;20211;-91
2021/09/24 16:38:20;;;;;;;7.85;3.97;;;;;;;;;;6202438;22;20164;-91
2021/09/24 16:41:26;;;;;;;8.82;4.00;;;;;;;;;;6201526;23;20168;-91
2021/09/24 16:44:32;;;;;;;6.07;3.92;;;;;;;;;;6201190;23;20228;-93
2021/09/24 16:47:37;;;;;;;13.05;4.97;;;;;;;;;;6201965;22;20207;-90
2021/09/24 16:50:43;;;;;;;8.70;4.35;;;;;;;;;;6199221;23;20264;-92
2021/09/24 16:53:48;;;;;;;10.85;4.20;;;;;;;;;;6200901;23;20171;-90
2021/09/24 16:56:53;;;;;;;9.18;4.18;;;;;;;;;;6202911;22;20176;-92
2021/09/24 17:00:00;;;;;;;7.95;5.03;;;;;;;;;;6201520;23;20159;-91
2021/09/24 17:03:05;;;;;;;11.73;5.30;;;;;;;;;;6201645;23;20638;-90
2021/09/24 17:06:11;;;;;;;12.27;5.35;;;;;;;;;;6200643;23;20172;-91
2021/09/24 17:09:16;;;;;;;8.48;4.90;;;;;;;;;;6200151;23;20172;-91
2021/09/24 17:12:21;;;;;;;13.13;5.38;;;;;;;;;;6200019;23;20171;-90
2021/09/24 17:15:29;;;;;;;13.07;5.50;;;;;;;;;;6197269;22;20164;-93
2021/09/24 17:18:34;;;;;;;19.00;10.27;;;;;;;;;;6198611;23;20176;-90
2021/09/24 17:21:40;;;;;;;24.77;11.02;;;;;;;;;;6199528;23;20172;-91
2021/09/24 17:24:45;;;;;;;17.83;7.72;;;;;;;;;;6200556;23;20184;-90
2021/09/24 17:27:50;;;;;;;12.00;7.13;;;;;;;;;;6199971;22;20175;-91
2021/09/24 17:30:58;;;;;;;7.07;5.22;;;;;;;;;;6200569;23;20718;-93
2021/09/24 17:34:04;;;;;;;12.75;7.10;;;;;;;;;;6199672;23;20225;-88
2021/09/24 17:37:09;;;;;;;19.88;9.75;;;;;;;;;;6200578;23;20539;-91
2021/09/24 17:40:15;;;;;;;32.33;14.65;;;;;;;;;;6198732;23;20201;-90
2021/09/24 17:43:20;;;;;;;16.58;9.02;;;;;;;;;;6198956;23;20175;-91
2021/09/24 17:46:27;;;;;;;18.02;7.10;;;;;;;;;;6198032;23;20219;-92
2021/09/24 17:49:32;;;;;;;12.73;6.63;;;;;;;;;;6196307;23;20552;-90
2021/09/24 17:52:38;;;;;;;12.50;6.47;;;;;;;;;;6197411;23;20160;-91
2021/09/24 17:55:42;;;;;;;12.20;7.10;;;;;;;;;;6198498;23;20154;-92
2021/09/24 17:58:48;;;;;;;28.50;15.57;;;;;;;;;;6197298;23;20171;-91
2021/09/24 18:01:54;;;;;;;25.67;12.07;;;;;;;;;;6199215;23;20167;-91
2021/09/24 18:04:59;;;;;;;29.25;13.20;;;;;;;;;;6197313;23;20164;-89
2021/09/24 18:08:06;;;;;;;14.73;8.52;;;;;;;;;;6200082;22;20171;-90
2021/09/24 18:11:11;;;;;;;17.60;8.80;;;;;;;;;;6198597;23;20188;-89
2021/09/24 18:14:17;;;;;;;17.45;8.85;;;;;;;;;;6200149;23;20199;-90
2021/09/24 18:17:24;;;;;;;18.80;8.98;;;;;;;;;;6199433;23;20155;-90
2021/09/24 18:20:29;;;;;;;17.90;7.45;;;;;;;;;;6198107;23;20172;-91
2021/09/24 18:23:34;;;;;;;11.73;6.63;;;;;;;;;;6199019;23;20492;-90
2021/09/24 18:26:41;;;;;;;13.95;6.13;;;;;;;;;;6199046;23;20175;-88
2021/09/24 18:29:50;;;;;;;12.13;6.80;;;;;;;;;;6200683;23;20183;-89
2021/09/24 18:32:56;;;;;;;13.52;6.32;;;;;;;;;;6200298;23;20168;-89
2021/09/24 18:36:02;;;;;;;13.05;6.78;;;;;;;;;;6200141;23;20279;-89
2021/09/24 18:39:07;;;;;;;15.10;8.27;;;;;;;;;;6199637;23;20211;-89
2021/09/24 18:42:12;;;;;;;11.07;7.38;;;;;;;;;;6199274;23;20211;-90
2021/09/24 18:45:17;;;;;;;13.63;7.43;;;;;;;;;;6199845;23;20171;-91